Flight Track Log - Related Links

Times and Time Zones

All times are in EDT time to prevent confusion due to time zone crossing. See the SWA2336 flight status page for this flight to view local times or setup timezone preferences in your user account.

Time Position Orientation Groundspeed Altitude Reporting Facility
EDT Latitude Longitude Course Direction KTS MPH feet Rate Location/Type
Sat 18:09:52 36.0767 -115.1014 89° East 162 186 3,700  Level Los Angeles Center
Sat 18:10:53 36.0769 -115.0136 90° East 271 312 6,300 2,308 Climbing Los Angeles Center
Sat 18:11:10 36.0764 -114.9947 92° East 252 290 6,700 1,500 Climbing Los Angeles Center
Sat 18:11:53 36.0369 -114.9392 131° Southeast 294 338 7,800 1,645 Climbing Los Angeles Center
Sat 18:12:12 36.0256 -114.9344 161° South 278 320 8,400 2,925 Climbing Los Angeles Center
Sat 18:13:13 35.9481 -114.9608 195° South 284 327 11,700 2,878 Climbing Los Angeles Center
Sat 18:14:15 35.8500 -114.9914 194° South 335 386 14,300 3,435 Climbing Los Angeles Center
Sat 18:15:17 35.7236 -115.0308 194° South 381 438 18,800 3,529 Climbing Los Angeles Center
Sat 18:16:31 35.5964 -115.0825 198° South 394 453 22,300 2,868 Climbing Los Angeles Center
Sat 18:17:33 35.4861 -115.1306 200° South 411 473 25,300 2,515 Climbing Los Angeles Center
Sat 18:18:47 35.3547 -115.1850 199° South 413 475 28,000 1,191 Climbing Los Angeles Center
Sat 18:19:49 35.2472 -115.2300 199° South 409 471 28,000  Level Los Angeles Center
Sat 18:20:51 35.1367 -115.2778 199° South 407 468 28,000  Level Los Angeles Center
Sat 18:21:52 35.0289 -115.3225 199° South 408 470 28,000  Level Los Angeles Center
Sat 18:22:54 34.9178 -115.3678 198° South 421 484 28,000  Level Los Angeles Center
Sat 18:23:56 34.7794 -115.4275 200° South 435 501 28,000  Level Los Angeles Center
Sat 18:24:58 34.6656 -115.4739 199° South 433 498 28,000  Level Los Angeles Center
Sat 18:25:59 34.5461 -115.5236 199° South 435 501 28,000  Level Los Angeles Center
Sat 18:27:01 34.4322 -115.5689 198° South 436 502 28,000  Level Los Angeles Center
Sat 18:28:03 34.3167 -115.6175 199° South 436 502 28,000  Level Los Angeles Center
Sat 18:29:05 34.2011 -115.6650 199° South 437 503 28,000  Level Los Angeles Center
Sat 18:30:07 34.0850 -115.7111 198° South 439 505 28,000  Level Los Angeles Center
Sat 18:31:09 33.9708 -115.7589 199° South 436 502 28,000  Level Los Angeles Center
Sat 18:32:11 33.8336 -115.8144 199° South 434 499 28,000 -49 Level Los Angeles Center
Sat 18:33:12 33.7194 -115.8608 199° South 433 498 27,900 -1,073 Descending Los Angeles Center
Sat 18:34:14 33.6069 -115.9067 199° South 429 494 25,800 -1,887 Descending Los Angeles Center
Sat 18:35:16 33.5075 -115.9639 206° Southwest 414 476 24,000 -1,306 Descending Los Angeles Center
Sat 18:36:18 33.4372 -116.0569 228° Southwest 381 438 23,100 -1,548 Descending Los Angeles Center
Sat 18:37:20 33.3503 -116.1339 216° Southwest 387 445 20,800 -2,371 Descending Los Angeles Center
Sat 18:38:22 33.2517 -116.2236 217° Southwest 377 434 18,200 -2,274 Descending Los Angeles Center
Sat 18:39:24 33.1711 -116.2956 217° Southwest 366 421 16,100 -2,032 Descending Los Angeles Center
Sat 18:40:26 33.0925 -116.3658 217° Southwest 358 412 14,000 -1,984 Descending Los Angeles Center
Sat 18:41:28 33.0133 -116.4361 217° Southwest 351 404 12,000 -1,113 Descending Los Angeles Center
Sat 18:42:30 32.9325 -116.4867 208° Southwest 329 379 11,700 -1,024 Descending Los Angeles Center
Sat 18:43:31 32.8614 -116.5592 221° Southwest 309 356 9,900 -1,610 Descending Los Angeles Center
Sat 18:44:33 32.8200 -116.6419 239° Southwest 296 341 8,400 -1,452 Descending Los Angeles Center
Sat 18:45:35 32.7781 -116.7242 239° Southwest 292 336 6,900 -1,306 Descending Los Angeles Center
Sat 18:46:37 32.7372 -116.8058 239° Southwest 290 334 5,700 -952 Descending Los Angeles Center
Sat 18:47:41 32.6833 -116.9000 236° Southwest 257 296 4,900 -738 Descending Southern California TRACON
Sat 18:48:47 32.6833 -116.9667 270° West 234 269 4,100 -661 Descending Southern California TRACON
Sat 18:49:48 32.7000 -117.0333 287° West 196 226 3,500 -744 Descending Southern California TRACON
Sat 18:50:48 32.7167 -117.1000 287° West 172 198 2,600 -1,150 Descending Southern California TRACON
Sat 18:51:48 32.7167 -117.1500 270° West 146 168 1,200 -1,400 Descending Southern California TRACON
Sat 18:54:00 32.7333 -117.1833 281° West  Level FlightAware Approximate
Sat 19:01:00 32.7336 -117.1897 281° West  Level Estimated

Login

Don't have an account? Register now (free) for customized features, flight alerts, and more!